createdAt,value
2023-03-21T00:02:24.085Z,7.57
2023-03-21T00:04:53.735Z,7.57
2023-03-21T00:07:22.535Z,7.79
2023-03-21T00:09:49.965Z,7.56
2023-03-21T00:12:20.880Z,7.59
2023-03-21T00:14:48.334Z,7.87
2023-03-21T00:17:17.249Z,7.64
2023-03-21T00:19:46.173Z,7.70
2023-03-21T00:22:13.797Z,7.51
2023-03-21T00:24:41.484Z,7.89
2023-03-21T00:27:41.366Z,7.83
2023-03-21T00:29:56.613Z,7.71
2023-03-21T00:32:25.666Z,7.67
2023-03-21T00:35:03.859Z,7.78
2023-03-21T00:37:37.065Z,8.08
2023-03-21T00:40:16.403Z,8.00
2023-03-21T00:42:47.082Z,7.94
2023-03-21T00:45:15.418Z,7.62
2023-03-21T00:47:44.291Z,8.04
2023-03-21T00:50:12.695Z,8.21
2023-03-21T00:52:41.282Z,8.24
2023-03-21T00:55:14.309Z,8.22
2023-03-21T00:57:45.342Z,8.24
2023-03-21T01:00:17.934Z,8.24
2023-03-21T01:03:02.638Z,8.19
2023-03-21T01:05:55.414Z,8.21
2023-03-21T01:08:31.170Z,8.15
2023-03-21T01:11:05.383Z,8.20
2023-03-21T01:13:34.603Z,8.18
2023-03-21T01:16:07.002Z,8.21
2023-03-21T01:18:37.036Z,8.20
2023-03-21T01:21:08.480Z,8.20
2023-03-21T01:23:36.246Z,8.18
2023-03-21T01:26:03.976Z,8.23
2023-03-21T01:28:32.017Z,8.21
2023-03-21T01:31:02.431Z,8.18
2023-03-21T01:33:30.648Z,8.17
2023-03-21T01:36:10.255Z,8.14
2023-03-21T01:38:40.358Z,8.14
2023-03-21T01:41:17.255Z,8.12
2023-03-21T01:43:47.236Z,8.15
2023-03-21T01:46:45.398Z,8.15
2023-03-21T01:49:24.830Z,7.50
2023-03-21T01:52:01.077Z,7.46
2023-03-21T01:54:35.142Z,7.55
2023-03-21T01:57:07.207Z,7.29
2023-03-21T01:59:38.647Z,7.64
2023-03-21T02:02:09.934Z,7.93
2023-03-21T02:04:39.009Z,8.02
2023-03-21T02:07:12.406Z,8.03
2023-03-21T02:09:42.894Z,7.99
2023-03-21T02:12:10.983Z,8.00
2023-03-21T02:14:39.887Z,7.98
2023-03-21T02:17:18.731Z,7.82
2023-03-21T02:20:25.135Z,7.82
2023-03-21T02:23:13.475Z,6.96
2023-03-21T02:26:09.188Z,7.80
2023-03-21T02:28:40.594Z,7.89
2023-03-21T02:31:36.960Z,7.86
2023-03-21T02:34:37.093Z,7.89
2023-03-21T02:37:16.046Z,7.90
2023-03-21T02:39:56.008Z,7.79
2023-03-21T02:42:30.465Z,7.76
2023-03-21T02:45:04.037Z,7.56
2023-03-21T02:47:35.484Z,7.74
2023-03-21T02:50:10.819Z,7.80
2023-03-21T02:52:41.416Z,7.13
2023-03-21T02:55:14.029Z,6.89
2023-03-21T02:57:44.451Z,7.06
2023-03-21T03:00:18.111Z,7.38
2023-03-21T03:02:46.544Z,7.72
2023-03-21T03:05:21.731Z,7.28
2023-03-21T03:08:11.676Z,7.80
2023-03-21T03:10:52.627Z,7.81
2023-03-21T03:13:25.711Z,7.67
2023-03-21T03:16:05.206Z,7.78
2023-03-21T03:18:42.699Z,7.79
2023-03-21T03:21:16.042Z,7.58
2023-03-21T03:23:49.730Z,7.54
2023-03-21T03:26:21.796Z,7.65
2023-03-21T03:28:54.278Z,7.35
2023-03-21T03:31:27.520Z,7.15
2023-03-21T03:33:59.136Z,7.02
2023-03-21T03:36:33.125Z,7.42
2023-03-21T03:39:05.337Z,6.93
2023-03-21T03:42:02.976Z,6.24
2023-03-21T03:44:28.308Z,6.30
2023-03-21T03:47:02.098Z,6.76
2023-03-21T03:49:34.290Z,7.11
2023-03-21T03:52:06.614Z,6.98
2023-03-21T03:54:39.129Z,7.51
2023-03-21T03:57:08.694Z,7.55
2023-03-21T03:59:38.195Z,7.61
2023-03-21T04:02:06.003Z,7.27
2023-03-21T04:04:34.011Z,7.52
2023-03-21T04:07:03.435Z,7.51
2023-03-21T04:09:43.559Z,7.53
2023-03-21T04:12:13.686Z,7.49
2023-03-21T04:14:45.577Z,7.42
2023-03-21T04:17:14.644Z,7.39
2023-03-21T04:19:42.431Z,7.37
2023-03-21T04:22:10.701Z,7.35
2023-03-21T04:24:38.443Z,7.32
2023-03-21T04:27:06.197Z,7.32
2023-03-21T04:29:35.224Z,7.31
2023-03-21T04:32:03.457Z,7.31
2023-03-21T04:34:31.043Z,7.36
2023-03-21T04:36:58.531Z,7.32
2023-03-21T04:39:26.018Z,7.30
2023-03-21T04:41:53.469Z,7.34
2023-03-21T04:44:20.962Z,7.08
2023-03-21T04:46:50.242Z,6.58
2023-03-21T04:49:18.399Z,6.65
2023-03-21T04:51:46.009Z,7.01
2023-03-21T04:56:42.676Z,7.25
2023-03-21T04:59:13.117Z,7.28
2023-03-21T05:01:43.707Z,6.92
2023-03-21T05:04:14.918Z,7.05
2023-03-21T05:06:43.800Z,7.08
2023-03-21T05:09:11.857Z,6.78
2023-03-21T05:11:41.075Z,7.12
2023-03-21T05:14:12.094Z,7.11
2023-03-21T05:16:48.352Z,7.15
2023-03-21T05:19:17.346Z,7.14
2023-03-21T05:21:45.040Z,7.09
2023-03-21T05:24:14.988Z,7.08
2023-03-21T05:26:43.918Z,7.15
2023-03-21T05:29:11.786Z,7.16
2023-03-21T05:31:39.240Z,7.02
2023-03-21T05:34:06.704Z,7.09
2023-03-21T05:36:36.042Z,7.01
2023-03-21T05:39:03.629Z,7.11
2023-03-21T05:41:31.075Z,7.15
2023-03-21T05:43:58.567Z,7.20
2023-03-21T05:46:26.053Z,7.23
2023-03-21T05:48:53.523Z,6.62
2023-03-21T05:51:21.080Z,6.45
2023-03-21T05:53:50.338Z,6.39
2023-03-21T05:56:17.783Z,6.88
2023-03-21T05:58:45.550Z,6.90
2023-03-21T06:01:13.009Z,6.52
2023-03-21T06:03:40.517Z,5.86
2023-03-21T06:06:08.825Z,5.85
2023-03-21T06:08:36.315Z,5.74
2023-03-21T06:11:05.434Z,5.53
2023-03-21T06:13:33.356Z,6.28
2023-03-21T06:16:01.453Z,6.33
2023-03-21T06:18:28.940Z,6.71
2023-03-21T06:20:57.376Z,6.80
2023-03-21T06:23:24.847Z,6.35
2023-03-21T06:25:52.289Z,6.19
2023-03-21T06:28:21.143Z,6.28
2023-03-21T06:30:48.569Z,6.28
2023-03-21T06:33:16.253Z,6.55
2023-03-21T06:35:43.776Z,6.89
2023-03-21T06:38:11.623Z,6.90
2023-03-21T06:40:40.214Z,7.07
2023-03-21T06:43:07.671Z,7.22
2023-03-21T06:45:36.892Z,7.37
2023-03-21T06:48:04.646Z,7.36
2023-03-21T06:50:32.278Z,7.37
2023-03-21T06:52:59.756Z,7.43
2023-03-21T06:55:28.831Z,7.36
2023-03-21T06:57:57.593Z,7.41
2023-03-21T07:00:25.796Z,7.36
2023-03-21T07:02:54.675Z,7.38
2023-03-21T07:05:22.138Z,7.40
2023-03-21T07:07:49.598Z,7.36
2023-03-21T07:10:17.133Z,7.37
2023-03-21T07:12:44.621Z,7.35
2023-03-21T07:15:12.237Z,7.39
2023-03-21T07:17:39.735Z,7.46
2023-03-21T07:20:10.397Z,7.46
2023-03-21T07:22:37.863Z,7.51
2023-03-21T07:25:07.701Z,7.52
2023-03-21T07:27:35.253Z,7.54
2023-03-21T07:30:02.719Z,7.60
2023-03-21T07:32:33.760Z,7.69
2023-03-21T07:35:01.988Z,7.67
2023-03-21T07:37:30.801Z,7.86
2023-03-21T07:39:58.107Z,7.82
2023-03-21T07:42:25.672Z,7.75
2023-03-21T07:44:54.920Z,7.83
2023-03-21T07:47:22.459Z,7.85
2023-03-21T07:49:49.891Z,7.93
2023-03-21T07:52:17.335Z,7.98
2023-03-21T07:54:46.193Z,7.97
2023-03-21T07:57:13.933Z,8.16
2023-03-21T07:59:41.407Z,8.34
2023-03-21T08:02:11.851Z,8.31
2023-03-21T08:04:40.023Z,8.25
2023-03-21T08:07:07.623Z,8.45
2023-03-21T08:09:36.130Z,8.50
2023-03-21T08:12:05.756Z,8.66
2023-03-21T08:14:33.236Z,8.54
2023-03-21T08:17:01.429Z,8.61
2023-03-21T08:19:28.913Z,8.56
2023-03-21T08:21:59.633Z,8.62
2023-03-21T08:24:27.133Z,8.82
2023-03-21T08:26:54.683Z,8.57
2023-03-21T08:29:24.980Z,8.84
2023-03-21T08:31:52.577Z,8.71
2023-03-21T08:34:22.947Z,8.80
2023-03-21T08:36:50.952Z,8.90
2023-03-21T08:39:18.461Z,9.01
2023-03-21T08:41:46.242Z,9.03
2023-03-21T08:44:16.129Z,9.04
2023-03-21T08:46:45.054Z,9.19
2023-03-21T08:49:12.723Z,9.46
2023-03-21T08:51:41.091Z,9.25
2023-03-21T08:54:08.636Z,9.46
2023-03-21T08:56:37.480Z,9.43
2023-03-21T08:59:05.084Z,9.41
2023-03-21T09:01:32.522Z,9.54
2023-03-21T09:04:01.300Z,9.73
2023-03-21T09:06:29.970Z,9.47
2023-03-21T09:08:57.295Z,9.47
2023-03-21T09:11:24.767Z,9.60
2023-03-21T09:13:52.259Z,10.07
2023-03-21T09:16:19.761Z,9.78
2023-03-21T09:18:49.415Z,9.68
2023-03-21T09:21:21.000Z,9.86
2023-03-21T09:23:52.591Z,9.77
2023-03-21T09:26:20.806Z,9.76
2023-03-21T09:28:49.048Z,9.83
2023-03-21T09:31:21.628Z,9.95
2023-03-21T09:33:49.879Z,9.84
2023-03-21T09:36:20.861Z,9.92
2023-03-21T09:38:50.301Z,10.10
2023-03-21T09:41:27.148Z,10.17
2023-03-21T09:44:08.153Z,9.91
2023-03-21T09:46:42.531Z,10.11
2023-03-21T09:49:17.599Z,10.15
2023-03-21T09:51:52.680Z,10.41
2023-03-21T09:54:25.322Z,10.50
2023-03-21T09:56:57.617Z,10.70
2023-03-21T09:59:33.536Z,10.63
2023-03-21T10:02:02.098Z,10.80
2023-03-21T10:04:31.847Z,10.85
2023-03-21T10:07:03.931Z,10.76
2023-03-21T10:09:33.184Z,10.65
2023-03-21T10:12:04.855Z,11.06
2023-03-21T10:14:36.278Z,11.05
2023-03-21T10:17:18.855Z,10.71
2023-03-21T10:19:47.967Z,11.14
2023-03-21T10:22:16.896Z,11.18
2023-03-21T10:24:44.389Z,11.15
2023-03-21T10:27:13.132Z,11.28
2023-03-21T10:29:43.510Z,11.66
2023-03-21T10:32:14.754Z,11.92
2023-03-21T10:34:46.822Z,11.69
2023-03-21T10:37:17.535Z,11.37
2023-03-21T10:39:48.108Z,11.73
2023-03-21T10:42:19.798Z,11.62
2023-03-21T10:44:48.745Z,11.84
2023-03-21T10:47:21.523Z,11.63
2023-03-21T10:50:07.020Z,12.10
2023-03-21T10:52:39.303Z,11.69
2023-03-21T10:55:16.623Z,11.94
2023-03-21T10:57:44.291Z,12.16
2023-03-21T11:00:21.286Z,12.00
2023-03-21T11:02:51.129Z,11.99
2023-03-21T11:05:23.405Z,11.87
2023-03-21T11:08:00.888Z,11.90
2023-03-21T11:10:30.542Z,12.44
2023-03-21T11:13:02.284Z,12.73
2023-03-21T11:15:33.039Z,12.35
2023-03-21T11:18:13.918Z,12.40
2023-03-21T11:20:49.154Z,12.60
2023-03-21T11:23:20.619Z,12.65
2023-03-21T11:25:51.305Z,12.30
2023-03-21T11:28:23.194Z,12.31
2023-03-21T11:30:54.162Z,12.92
2023-03-21T11:33:23.534Z,12.43
2023-03-21T11:36:02.687Z,12.39
2023-03-21T11:38:33.881Z,12.56
2023-03-21T11:41:03.623Z,12.80
2023-03-21T11:43:33.574Z,12.67
2023-03-21T11:46:06.995Z,12.71
2023-03-21T11:48:39.209Z,12.94
2023-03-21T11:51:20.232Z,12.81
2023-03-21T11:53:56.962Z,13.00
2023-03-21T11:56:28.325Z,12.95
2023-03-21T11:59:13.387Z,13.02
2023-03-21T12:01:53.729Z,12.76
2023-03-21T12:04:36.390Z,13.30
2023-03-21T12:07:13.414Z,13.29
2023-03-21T12:09:45.505Z,13.08
2023-03-21T12:12:38.354Z,12.99
2023-03-21T12:15:14.036Z,13.00
2023-03-21T12:17:53.738Z,13.18
2023-03-21T12:20:32.541Z,13.70
2023-03-21T12:23:16.310Z,13.33
2023-03-21T12:25:48.479Z,13.39
2023-03-21T12:28:32.961Z,13.45
2023-03-21T12:31:10.397Z,13.49
2023-03-21T12:33:52.359Z,13.35
2023-03-21T12:36:36.146Z,13.64
2023-03-21T12:39:13.645Z,13.76
2023-03-21T12:41:45.570Z,13.45
2023-03-21T12:44:16.027Z,13.55
2023-03-21T12:46:46.726Z,13.43
2023-03-21T12:49:19.486Z,13.65
2023-03-21T12:51:50.891Z,13.44
2023-03-21T12:54:27.178Z,13.55
2023-03-21T12:57:02.592Z,13.48
2023-03-21T12:59:37.462Z,13.42
2023-03-21T13:02:19.210Z,13.62
2023-03-21T13:05:01.525Z,13.50
2023-03-21T13:07:34.491Z,13.50
2023-03-21T13:10:03.897Z,14.14
2023-03-21T13:12:49.108Z,13.67
2023-03-21T13:15:29.879Z,14.14
2023-03-21T13:18:03.190Z,13.88
2023-03-21T13:20:41.411Z,13.69
2023-03-21T13:23:09.535Z,13.64
2023-03-21T13:25:44.059Z,14.19
2023-03-21T13:28:19.410Z,13.90
2023-03-21T13:30:48.641Z,13.83
2023-03-21T13:33:21.503Z,13.82
2023-03-21T13:36:00.899Z,14.01
2023-03-21T13:38:30.378Z,14.04
2023-03-21T13:41:01.659Z,13.84
2023-03-21T13:43:39.897Z,14.06
2023-03-21T13:46:09.171Z,13.95
2023-03-21T13:48:59.133Z,14.13
2023-03-21T13:51:44.789Z,14.10
2023-03-21T13:54:25.365Z,14.03
2023-03-21T13:56:56.906Z,13.89
2023-03-21T13:59:41.530Z,14.00
2023-03-21T14:02:30.105Z,13.99
2023-03-21T14:05:06.439Z,14.07
2023-03-21T14:07:36.692Z,14.04
2023-03-21T14:10:07.884Z,13.95
2023-03-21T14:12:41.213Z,14.04
2023-03-21T14:15:18.961Z,14.02
2023-03-21T14:17:54.546Z,14.07
2023-03-21T14:20:24.631Z,14.02
2023-03-21T14:22:52.244Z,13.93
2023-03-21T14:25:21.584Z,13.89
2023-03-21T14:27:51.161Z,14.10
2023-03-21T14:30:25.824Z,13.89
2023-03-21T14:32:57.035Z,13.88
2023-03-21T14:35:24.666Z,13.83
2023-03-21T14:37:52.169Z,13.91
2023-03-21T14:40:23.645Z,14.02
2023-03-21T14:42:52.514Z,13.92
2023-03-21T14:45:23.501Z,13.98
2023-03-21T14:47:59.083Z,13.91
2023-03-21T14:50:37.540Z,13.77
2023-03-21T14:53:06.259Z,13.70
2023-03-21T14:55:34.655Z,13.89
2023-03-21T14:58:02.045Z,13.82
2023-03-21T15:00:32.038Z,13.60
2023-03-21T15:03:00.841Z,13.61
2023-03-21T15:05:32.476Z,13.82
2023-03-21T15:08:01.626Z,13.63
2023-03-21T15:10:32.113Z,13.57
2023-03-21T15:13:02.207Z,13.50
2023-03-21T15:15:33.043Z,13.66
2023-03-21T15:18:05.895Z,13.53
2023-03-21T15:20:36.738Z,13.51
2023-03-21T15:23:09.375Z,13.60
2023-03-21T15:25:38.295Z,13.49
2023-03-21T15:28:06.704Z,13.44
2023-03-21T15:30:36.127Z,13.58
2023-03-21T15:33:10.209Z,13.39
2023-03-21T15:35:41.592Z,13.44
2023-03-21T15:38:23.316Z,13.27
2023-03-21T15:40:51.033Z,13.23
2023-03-21T15:43:20.578Z,13.28
2023-03-21T15:45:53.227Z,13.41
2023-03-21T15:48:25.714Z,13.22
2023-03-21T15:50:57.655Z,13.24
2023-03-21T15:53:25.482Z,13.26
2023-03-21T15:55:57.017Z,13.18
2023-03-21T15:58:26.824Z,13.20
2023-03-21T16:00:57.368Z,13.19
2023-03-21T16:03:27.576Z,13.06
2023-03-21T16:06:08.337Z,13.04
2023-03-21T16:08:40.415Z,12.98
2023-03-21T16:11:09.518Z,12.95
2023-03-21T16:13:37.416Z,13.03
2023-03-21T16:16:06.934Z,13.04
2023-03-21T16:18:34.496Z,12.91
2023-03-21T16:21:01.977Z,12.87
2023-03-21T16:23:29.799Z,12.81
2023-03-21T16:25:58.825Z,12.86
2023-03-21T16:28:26.335Z,12.84
2023-03-21T16:30:53.806Z,12.78
2023-03-21T16:33:25.317Z,12.79
2023-03-21T16:35:53.982Z,12.83
2023-03-21T16:38:21.451Z,12.68
2023-03-21T16:40:49.033Z,12.69
2023-03-21T16:43:16.483Z,12.66
2023-03-21T16:45:43.953Z,12.64
2023-03-21T16:48:16.331Z,12.62
2023-03-21T16:50:47.995Z,12.49
2023-03-21T16:53:17.002Z,12.45
2023-03-21T16:55:44.491Z,12.39
2023-03-21T16:58:15.445Z,12.29
2023-03-21T17:00:43.360Z,12.13
2023-03-21T17:03:15.693Z,12.11
2023-03-21T17:05:43.210Z,12.02
2023-03-21T17:08:17.453Z,11.89
2023-03-21T17:10:45.345Z,11.65
2023-03-21T17:13:13.126Z,11.57
2023-03-21T17:15:41.774Z,11.47
2023-03-21T17:18:10.861Z,11.26
2023-03-21T17:20:41.348Z,11.27
2023-03-21T17:23:10.108Z,11.15
2023-03-21T17:25:38.980Z,11.23
2023-03-21T17:28:06.559Z,11.15
2023-03-21T17:30:36.117Z,11.14
2023-03-21T17:33:04.178Z,11.00
2023-03-21T17:35:31.749Z,10.96
2023-03-21T17:37:59.943Z,10.96
2023-03-21T17:40:29.737Z,10.92
2023-03-21T17:42:59.205Z,10.97
2023-03-21T17:45:26.959Z,10.91
2023-03-21T17:47:54.744Z,10.93
2023-03-21T17:50:24.068Z,10.88
2023-03-21T17:52:52.140Z,10.95
2023-03-21T17:55:21.177Z,10.91
2023-03-21T17:57:49.606Z,10.98
2023-03-21T18:00:22.498Z,10.99
2023-03-21T18:02:50.922Z,11.25
2023-03-21T18:05:19.411Z,11.10
2023-03-21T18:08:08.674Z,11.12
2023-03-21T18:10:34.272Z,11.21
2023-03-21T18:13:01.956Z,11.42
2023-03-21T18:15:31.082Z,11.08
2023-03-21T18:17:58.791Z,11.02
2023-03-21T18:20:49.918Z,11.15
2023-03-21T18:23:15.600Z,11.20
2023-03-21T18:25:43.757Z,11.37
2023-03-21T18:28:12.719Z,11.50
2023-03-21T18:31:00.691Z,11.50
2023-03-21T18:33:29.949Z,11.43
2023-03-21T18:35:59.629Z,11.51
2023-03-21T18:38:27.663Z,11.53
2023-03-21T18:40:55.725Z,11.43
2023-03-21T18:46:12.607Z,11.53
2023-03-21T18:48:40.445Z,11.52
2023-03-21T18:51:09.490Z,11.49
2023-03-21T18:53:37.212Z,11.50
2023-03-21T18:56:09.933Z,11.49
2023-03-21T18:58:38.470Z,11.48
2023-03-21T19:01:06.273Z,11.47
2023-03-21T19:03:37.465Z,11.43
2023-03-21T19:06:06.382Z,11.01
2023-03-21T19:08:38.363Z,11.24
2023-03-21T19:11:07.090Z,11.38
2023-03-21T19:13:35.646Z,11.37
2023-03-21T19:16:03.178Z,11.20
2023-03-21T19:18:49.978Z,11.31
2023-03-21T19:21:21.575Z,11.36
2023-03-21T19:26:36.481Z,10.90
2023-03-21T19:29:03.991Z,10.63
2023-03-21T19:31:31.605Z,10.66
2023-03-21T19:33:59.474Z,11.16
2023-03-21T19:36:28.559Z,11.13
2023-03-21T19:38:56.192Z,11.23
2023-03-21T19:41:23.728Z,11.15
2023-03-21T19:43:55.155Z,11.12
2023-03-21T19:46:25.305Z,11.14
2023-03-21T19:48:56.579Z,11.10
2023-03-21T19:51:29.405Z,11.17
2023-03-21T19:53:59.463Z,10.87
2023-03-21T19:56:27.884Z,11.11
2023-03-21T19:58:56.078Z,10.93
2023-03-21T20:01:25.145Z,10.67
2023-03-21T20:03:53.116Z,10.37
2023-03-21T20:06:22.479Z,10.97
2023-03-21T20:09:27.636Z,10.71
2023-03-21T20:11:39.952Z,9.86
2023-03-21T20:14:07.502Z,10.21
2023-03-21T20:16:36.658Z,10.27
2023-03-21T20:19:05.732Z,10.27
2023-03-21T20:21:43.423Z,10.88
2023-03-21T20:24:16.179Z,10.96
2023-03-21T20:26:46.319Z,11.00
2023-03-21T20:30:05.709Z,10.35
2023-03-21T20:32:04.639Z,10.15
2023-03-21T20:34:32.272Z,10.05
2023-03-21T20:37:00.258Z,10.74
2023-03-21T20:39:29.913Z,10.76
2023-03-21T20:41:59.595Z,10.67
2023-03-21T20:44:51.979Z,10.42
2023-03-21T20:47:16.604Z,10.09
2023-03-21T20:49:44.297Z,9.76
2023-03-21T20:54:59.580Z,9.65
2023-03-21T20:57:28.712Z,10.15
2023-03-21T20:59:56.268Z,9.91
2023-03-21T21:02:25.049Z,10.06
2023-03-21T21:05:21.924Z,10.58
2023-03-21T21:07:41.768Z,10.61
2023-03-21T21:10:11.365Z,10.56
2023-03-21T21:12:45.244Z,9.99
2023-03-21T21:15:16.396Z,10.12
2023-03-21T21:18:05.470Z,10.61
2023-03-21T21:20:33.517Z,10.75
2023-03-21T21:23:01.221Z,10.43
2023-03-21T21:25:30.329Z,10.43
2023-03-21T21:28:01.494Z,10.08
2023-03-21T21:30:29.628Z,9.94
2023-03-21T21:32:59.390Z,10.29
2023-03-21T21:35:27.248Z,10.68
2023-03-21T21:37:54.698Z,10.44
2023-03-21T21:40:23.359Z,10.73
2023-03-21T21:42:51.179Z,10.78
2023-03-21T21:45:20.176Z,10.80
2023-03-21T21:47:47.681Z,10.62
2023-03-21T21:50:15.346Z,10.79
2023-03-21T21:52:52.356Z,10.80
2023-03-21T21:55:19.862Z,10.81
2023-03-21T21:57:50.194Z,10.77
2023-03-21T22:00:21.144Z,10.21
2023-03-21T22:02:48.765Z,10.34
2023-03-21T22:05:18.806Z,10.43
2023-03-21T22:07:46.393Z,10.02
2023-03-21T22:10:14.386Z,9.98
2023-03-21T22:12:41.843Z,10.39
2023-03-21T22:15:11.880Z,10.14
2023-03-21T22:17:42.099Z,9.84
2023-03-21T22:20:11.897Z,10.01
2023-03-21T22:22:39.575Z,9.99
2023-03-21T22:25:10.026Z,10.39
2023-03-21T22:27:38.195Z,10.48
2023-03-21T22:30:08.119Z,10.46
2023-03-21T22:32:37.469Z,10.56
2023-03-21T22:35:08.745Z,10.40
2023-03-21T22:37:37.991Z,10.22
2023-03-21T22:40:09.644Z,10.49
2023-03-21T22:42:39.470Z,10.54
2023-03-21T22:45:08.353Z,10.29
2023-03-21T22:47:36.291Z,9.95
2023-03-21T22:50:04.673Z,10.38
2023-03-21T22:52:33.441Z,10.47
2023-03-21T22:55:01.012Z,10.49
2023-03-21T22:57:28.447Z,10.49
2023-03-21T22:59:55.930Z,10.44
2023-03-21T23:02:23.378Z,10.44
2023-03-21T23:04:50.833Z,10.43
2023-03-21T23:07:18.330Z,10.41
2023-03-21T23:09:47.170Z,9.80
2023-03-21T23:12:16.775Z,10.19
2023-03-21T23:14:44.387Z,10.30
2023-03-21T23:17:12.394Z,10.32
2023-03-21T23:19:41.188Z,10.28
2023-03-21T23:22:08.799Z,10.32
2023-03-21T23:24:36.302Z,10.30
2023-03-21T23:27:05.340Z,10.23
2023-03-21T23:29:32.875Z,10.32
2023-03-21T23:32:00.826Z,10.27
2023-03-21T23:34:28.668Z,9.70
2023-03-21T23:36:56.162Z,9.54
2023-03-21T23:39:24.381Z,9.72
2023-03-21T23:41:51.891Z,9.65
2023-03-21T23:44:20.851Z,9.12
2023-03-21T23:46:48.283Z,9.04
2023-03-21T23:49:15.892Z,8.67
2023-03-21T23:51:44.909Z,8.70
2023-03-21T23:54:12.347Z,8.86
2023-03-21T23:56:39.997Z,8.95
2023-03-21T23:59:07.492Z,9.31
